createdAt,value
2018-01-04T00:01:23.048Z,75.70
2018-01-04T00:03:51.404Z,76.30
2018-01-04T00:06:19.711Z,75.50
2018-01-04T00:08:48.078Z,75.80
2018-01-04T00:11:16.290Z,75.00
2018-01-04T00:13:44.590Z,75.30
2018-01-04T00:16:12.846Z,76.00
2018-01-04T00:18:41.175Z,75.70
2018-01-04T00:21:09.681Z,74.40
2018-01-04T00:23:37.927Z,75.00
2018-01-04T00:26:06.183Z,75.10
2018-01-04T00:28:35.330Z,75.10
2018-01-04T00:31:03.558Z,74.90
2018-01-04T00:33:33.067Z,74.30
2018-01-04T00:36:01.307Z,75.00
2018-01-04T00:38:29.654Z,74.40
2018-01-04T00:40:57.939Z,75.20
2018-01-04T00:43:26.235Z,74.60
2018-01-04T00:45:55.278Z,74.70
2018-01-04T00:48:23.560Z,74.70
2018-01-04T00:50:51.860Z,75.10
2018-01-04T00:53:20.153Z,74.60
2018-01-04T00:55:48.412Z,74.40
2018-01-04T00:58:16.686Z,75.20
2018-01-04T01:00:45.246Z,74.60
2018-01-04T01:03:13.634Z,74.90
2018-01-04T01:05:41.876Z,73.70
2018-01-04T01:08:10.478Z,74.20
2018-01-04T01:10:38.856Z,73.50
2018-01-04T01:13:07.205Z,73.50
2018-01-04T01:15:36.255Z,73.50
2018-01-04T01:18:04.706Z,73.60
2018-01-04T01:20:33.377Z,73.40
2018-01-04T01:23:01.608Z,73.90
2018-01-04T01:25:30.023Z,74.00
2018-01-04T01:27:58.446Z,74.10
2018-01-04T01:30:26.732Z,73.80
2018-01-04T01:32:55.030Z,74.00
2018-01-04T01:35:23.480Z,73.90
2018-01-04T01:37:51.789Z,73.80
2018-01-04T01:40:21.045Z,74.20
2018-01-04T01:42:49.316Z,74.10
2018-01-04T01:45:17.595Z,74.20
2018-01-04T01:47:45.883Z,74.60
2018-01-04T01:50:14.191Z,74.10
2018-01-04T01:52:42.493Z,74.60
2018-01-04T01:55:10.907Z,75.80
2018-01-04T01:57:39.965Z,77.40
2018-01-04T02:00:09.090Z,78.20
2018-01-04T02:02:37.395Z,78.20
2018-01-04T02:05:05.638Z,78.40
2018-01-04T02:07:33.890Z,78.40
2018-01-04T02:10:02.508Z,78.20
2018-01-04T02:12:30.880Z,78.20
2018-01-04T02:14:59.182Z,79.10
2018-01-04T02:17:28.515Z,80.00
2018-01-04T02:20:08.682Z,79.80
2018-01-04T02:25:48.426Z,81.40
2018-01-04T02:28:28.355Z,81.40
2018-01-04T02:31:09.178Z,82.30
2018-01-04T02:33:49.227Z,82.30
2018-01-04T02:36:30.132Z,82.30
2018-01-04T02:39:10.374Z,82.30
2018-01-04T02:41:51.690Z,83.00
2018-01-04T02:47:18.870Z,82.60
2018-01-04T02:49:48.010Z,83.30
2018-01-04T02:52:16.476Z,83.30
2018-01-04T02:54:44.847Z,83.10
2018-01-04T02:57:13.277Z,82.60
2018-01-04T02:59:41.619Z,82.30
2018-01-04T03:02:10.716Z,83.80
2018-01-04T03:04:38.984Z,83.70
2018-01-04T03:07:07.267Z,84.70
2018-01-04T03:09:36.503Z,84.60
2018-01-04T03:12:04.941Z,84.50
2018-01-04T03:14:33.399Z,84.70
2018-01-04T03:17:01.650Z,83.20
2018-01-04T03:19:30.798Z,82.60
2018-01-04T03:22:04.878Z,82.60
2018-01-04T03:24:38.660Z,83.50
2018-01-04T03:27:12.704Z,83.20
2018-01-04T03:29:41.071Z,84.40
2018-01-04T03:32:15.764Z,83.20
2018-01-04T03:34:49.806Z,83.10
2018-01-04T03:37:24.509Z,83.80
2018-01-04T03:39:58.446Z,83.70
2018-01-04T03:42:33.177Z,83.40
2018-01-04T03:45:07.867Z,82.80
2018-01-04T03:47:41.766Z,82.80
2018-01-04T03:50:15.786Z,82.50
2018-01-04T03:52:44.100Z,83.00
2018-01-04T03:55:18.824Z,82.30
2018-01-04T03:57:53.529Z,82.80
2018-01-04T04:00:27.521Z,82.70
2018-01-04T04:02:56.905Z,82.30
2018-01-04T04:05:30.953Z,81.80
2018-01-04T04:08:04.696Z,81.90
2018-01-04T04:10:33.064Z,81.80
2018-01-04T04:13:01.488Z,81.70
2018-01-04T04:15:29.938Z,81.20
2018-01-04T04:17:58.244Z,82.40
2018-01-04T04:20:26.964Z,81.50
2018-01-04T04:22:56.102Z,81.10
2018-01-04T04:25:24.712Z,81.10
2018-01-04T04:27:53.017Z,81.00
2018-01-04T04:30:22.288Z,82.70
2018-01-04T04:32:50.523Z,82.70
2018-01-04T04:35:18.902Z,81.60
2018-01-04T04:37:47.324Z,81.80
2018-01-04T04:40:15.554Z,83.10
2018-01-04T04:42:44.021Z,82.70
2018-01-04T04:45:13.184Z,81.90
2018-01-04T04:47:41.411Z,81.90
2018-01-04T04:50:09.726Z,81.60
2018-01-04T04:52:37.991Z,81.50
2018-01-04T04:55:06.254Z,80.70
2018-01-04T04:57:34.750Z,79.90
2018-01-04T05:00:02.996Z,80.20
2018-01-04T05:02:31.460Z,80.30
2018-01-04T05:05:00.475Z,79.00
2018-01-04T05:07:29.626Z,78.40
2018-01-04T05:09:57.856Z,78.40
2018-01-04T05:12:26.158Z,79.00
2018-01-04T05:14:54.590Z,79.10
2018-01-04T05:17:24.007Z,79.00
2018-01-04T05:19:52.375Z,78.80
2018-01-04T05:22:21.458Z,79.50
2018-01-04T05:24:49.678Z,79.40
2018-01-04T05:27:18.069Z,79.90
2018-01-04T05:29:46.370Z,79.50
2018-01-04T05:32:14.694Z,80.40
2018-01-04T05:34:42.983Z,79.90
2018-01-04T05:37:12.065Z,80.50
2018-01-04T05:39:41.270Z,80.60
2018-01-04T05:42:09.593Z,80.60
2018-01-04T05:44:37.865Z,79.90
2018-01-04T05:47:06.141Z,80.20
2018-01-04T05:49:34.378Z,80.60
2018-01-04T05:52:02.656Z,79.50
2018-01-04T05:54:31.835Z,79.20
2018-01-04T05:57:00.083Z,79.10
2018-01-04T05:59:28.334Z,77.80
2018-01-04T06:01:56.582Z,78.00
2018-01-04T06:04:24.816Z,77.10
2018-01-04T06:06:54.042Z,77.10
2018-01-04T06:09:22.506Z,77.10
2018-01-04T06:11:50.738Z,77.30
2018-01-04T06:14:19.185Z,77.60
2018-01-04T06:16:47.504Z,77.00
2018-01-04T06:19:15.823Z,77.00
2018-01-04T06:21:45.233Z,78.40
2018-01-04T06:24:14.430Z,78.50
2018-01-04T06:26:43.565Z,78.10
2018-01-04T06:29:11.908Z,78.10
2018-01-04T06:31:40.175Z,78.30
2018-01-04T06:34:09.194Z,77.40
2018-01-04T06:36:37.468Z,77.40
2018-01-04T06:39:05.942Z,77.50
2018-01-04T06:41:34.267Z,77.50
2018-01-04T06:44:02.682Z,76.90
2018-01-04T06:46:30.930Z,77.00
2018-01-04T06:48:59.261Z,77.80
2018-01-04T06:51:27.724Z,78.20
2018-01-04T06:53:56.939Z,77.70
2018-01-04T06:56:25.250Z,77.70
2018-01-04T06:58:53.563Z,77.60
2018-01-04T07:01:22.579Z,79.10
2018-01-04T07:03:50.949Z,78.40
2018-01-04T07:06:19.253Z,78.40
2018-01-04T07:08:47.507Z,79.10
2018-01-04T07:11:15.905Z,79.50
2018-01-04T07:13:44.315Z,79.00
2018-01-04T07:16:12.614Z,78.90
2018-01-04T07:18:41.647Z,79.00
2018-01-04T07:21:09.895Z,78.80
2018-01-04T07:23:38.974Z,79.10
2018-01-04T07:26:07.279Z,79.10
2018-01-04T07:28:36.476Z,78.80
2018-01-04T07:31:05.604Z,79.60
2018-01-04T07:33:34.044Z,79.60
2018-01-04T07:36:03.490Z,79.60
2018-01-04T07:38:31.807Z,79.60
2018-01-04T07:41:00.109Z,79.80
2018-01-04T07:43:29.208Z,79.10
2018-01-04T07:45:57.629Z,79.10
2018-01-04T07:48:25.891Z,80.10
2018-01-04T07:50:54.171Z,78.80
2018-01-04T07:53:22.519Z,79.50
2018-01-04T07:55:50.838Z,79.30
2018-01-04T07:58:19.094Z,79.60
2018-01-04T08:00:47.415Z,79.20
2018-01-04T08:03:15.702Z,79.30
2018-01-04T08:05:44.174Z,78.90
2018-01-04T08:08:12.513Z,79.10
2018-01-04T08:10:40.746Z,78.60
2018-01-04T08:13:09.793Z,79.30
2018-01-04T08:15:38.115Z,79.30
2018-01-04T08:18:07.436Z,78.70
2018-01-04T08:20:35.791Z,78.80
2018-01-04T08:23:04.122Z,78.90
2018-01-04T08:25:32.444Z,78.90
2018-01-04T08:28:01.603Z,78.50
2018-01-04T08:30:29.930Z,78.50
2018-01-04T08:32:58.941Z,77.60
2018-01-04T08:35:27.266Z,77.60
2018-01-04T08:37:55.654Z,78.70
2018-01-04T08:40:24.079Z,78.90
2018-01-04T08:42:52.450Z,77.50
2018-01-04T08:45:20.726Z,78.20
2018-01-04T08:47:49.056Z,78.20
2018-01-04T08:50:17.489Z,78.00
2018-01-04T08:52:46.703Z,77.80
2018-01-04T08:55:14.981Z,77.80
2018-01-04T08:57:43.271Z,77.20
2018-01-04T09:00:12.278Z,78.00
2018-01-04T09:02:40.820Z,78.00
2018-01-04T09:05:09.091Z,77.50
2018-01-04T09:07:37.308Z,77.00
2018-01-04T09:10:05.668Z,77.10
2018-01-04T09:12:34.052Z,76.20
2018-01-04T09:15:02.383Z,76.80
2018-01-04T09:17:30.634Z,76.70
2018-01-04T09:19:59.054Z,76.00
2018-01-04T09:22:27.283Z,77.30
2018-01-04T09:24:55.823Z,75.70
2018-01-04T09:27:24.847Z,76.60
2018-01-04T09:29:53.144Z,76.50
2018-01-04T09:32:21.614Z,75.90
2018-01-04T09:34:49.952Z,76.50
2018-01-04T09:37:18.206Z,75.80
2018-01-04T09:39:47.207Z,75.60
2018-01-04T09:42:16.264Z,74.50
2018-01-04T09:44:44.722Z,74.50
2018-01-04T09:47:13.982Z,75.00
2018-01-04T09:49:43.061Z,75.40
2018-01-04T09:52:12.230Z,75.30
2018-01-04T09:54:40.515Z,74.40
2018-01-04T09:57:08.773Z,73.80
2018-01-04T09:59:37.098Z,74.10
2018-01-04T10:02:05.366Z,74.10
2018-01-04T10:04:33.650Z,73.60
2018-01-04T10:07:02.802Z,74.10
2018-01-04T10:09:31.081Z,73.90
2018-01-04T10:11:59.718Z,74.70
2018-01-04T10:14:28.739Z,74.40
2018-01-04T10:16:57.003Z,74.30
2018-01-04T10:19:25.374Z,74.40
2018-01-04T10:21:54.394Z,74.10
2018-01-04T10:24:22.787Z,74.10
2018-01-04T10:26:51.069Z,75.10
2018-01-04T10:29:19.522Z,74.80
2018-01-04T10:31:47.804Z,75.90
2018-01-04T10:34:16.988Z,74.60
2018-01-04T10:36:46.072Z,75.00
2018-01-04T10:39:14.478Z,75.00
2018-01-04T10:41:42.789Z,73.50
2018-01-04T10:44:11.176Z,73.60
2018-01-04T10:46:39.494Z,73.30
2018-01-04T10:49:07.852Z,73.10
2018-01-04T10:51:36.072Z,73.50
2018-01-04T10:54:04.846Z,73.80
2018-01-04T10:56:33.188Z,73.40
2018-01-04T10:59:01.468Z,71.90
2018-01-04T11:01:29.692Z,73.50
2018-01-04T11:03:59.595Z,71.90
2018-01-04T11:06:27.875Z,73.00
2018-01-04T11:08:56.227Z,73.20
2018-01-04T11:11:25.298Z,73.10
2018-01-04T11:13:53.752Z,73.00
2018-01-04T11:16:22.211Z,74.10
2018-01-04T11:18:50.602Z,74.70
2018-01-04T11:21:18.886Z,73.60
2018-01-04T11:23:47.216Z,74.20
2018-01-04T11:26:16.999Z,73.90
2018-01-04T11:28:45.254Z,74.30
2018-01-04T11:31:14.674Z,75.30
2018-01-04T11:33:43.102Z,75.30
2018-01-04T11:36:12.327Z,74.70
2018-01-04T11:38:40.565Z,74.60
2018-01-04T11:41:08.838Z,74.20
2018-01-04T11:43:37.110Z,74.80
2018-01-04T11:46:05.346Z,74.50
2018-01-04T11:48:34.435Z,74.80
2018-01-04T11:51:02.705Z,74.80
2018-01-04T11:53:30.935Z,74.50
2018-01-04T11:55:59.210Z,74.90
2018-01-04T11:58:27.780Z,74.70
2018-01-04T12:00:56.090Z,74.90
2018-01-04T12:03:24.390Z,75.10
2018-01-04T12:05:52.730Z,74.90
2018-01-04T12:08:21.098Z,75.20
2018-01-04T12:10:49.398Z,75.70
2018-01-04T12:13:18.064Z,75.80
2018-01-04T12:15:46.341Z,76.50
2018-01-04T12:18:14.675Z,76.70
2018-01-04T12:20:42.968Z,77.40
2018-01-04T12:23:11.990Z,77.30
2018-01-04T12:25:40.277Z,77.30
2018-01-04T12:28:09.882Z,77.60
2018-01-04T12:30:38.247Z,77.90
2018-01-04T12:33:06.482Z,77.70
2018-01-04T12:35:34.772Z,78.40
2018-01-04T12:38:03.809Z,79.20
2018-01-04T12:40:32.158Z,79.20
2018-01-04T12:43:00.430Z,78.80
2018-01-04T12:45:29.520Z,80.00
2018-01-04T12:47:58.615Z,79.60
2018-01-04T12:50:27.648Z,79.60
2018-01-04T12:52:55.907Z,79.60
2018-01-04T12:55:24.223Z,80.30
2018-01-04T12:57:52.468Z,81.00
2018-01-04T13:00:20.899Z,81.30
2018-01-04T13:02:49.254Z,81.10
2018-01-04T13:05:17.536Z,81.90
2018-01-04T13:07:45.759Z,81.30
2018-01-04T13:10:14.915Z,81.90
2018-01-04T13:12:43.203Z,82.00
2018-01-04T13:15:11.477Z,82.20
2018-01-04T13:17:39.744Z,81.90
2018-01-04T13:20:08.178Z,81.90
2018-01-04T13:22:36.620Z,82.10
2018-01-04T13:25:04.878Z,82.10
2018-01-04T13:27:33.115Z,82.50
2018-01-04T13:30:01.520Z,83.30
2018-01-04T13:32:29.771Z,82.40
2018-01-04T13:34:57.995Z,81.50
2018-01-04T13:37:26.448Z,81.70
2018-01-04T13:39:55.361Z,82.20
2018-01-04T13:42:23.850Z,83.10
2018-01-04T13:44:52.088Z,83.70
2018-01-04T13:47:20.378Z,83.60
2018-01-04T13:49:48.641Z,84.80
2018-01-04T13:52:16.884Z,84.60
2018-01-04T13:54:45.971Z,85.30
2018-01-04T13:57:14.958Z,85.50
2018-01-04T13:59:43.951Z,85.70
2018-01-04T14:02:12.999Z,85.00
2018-01-04T14:04:41.550Z,85.00
2018-01-04T14:07:10.575Z,86.00
2018-01-04T14:09:39.026Z,86.00
2018-01-04T14:12:08.906Z,86.00
2018-01-04T14:14:37.452Z,85.80
2018-01-04T14:17:06.045Z,86.00
2018-01-04T14:19:34.415Z,85.80
2018-01-04T14:22:02.854Z,86.60
2018-01-04T14:24:31.159Z,86.10
2018-01-04T14:27:00.213Z,86.30
2018-01-04T14:29:28.468Z,85.60
2018-01-04T14:31:56.840Z,85.70
2018-01-04T14:34:25.914Z,85.60
2018-01-04T14:36:54.162Z,85.60
2018-01-04T14:39:23.408Z,87.10
2018-01-04T14:41:51.635Z,87.00
2018-01-04T14:44:20.678Z,86.90
2018-01-04T14:46:50.170Z,86.90
2018-01-04T14:49:18.528Z,87.20
2018-01-04T14:51:47.549Z,87.50
2018-01-04T14:54:15.850Z,87.30
2018-01-04T14:56:44.119Z,87.40
2018-01-04T14:59:12.506Z,87.30
2018-01-04T15:01:40.797Z,87.10
2018-01-04T15:04:09.082Z,87.30
2018-01-04T15:06:38.211Z,88.20
2018-01-04T15:09:06.458Z,88.20
2018-01-04T15:11:35.643Z,88.60
2018-01-04T15:14:03.888Z,88.60
2018-01-04T15:16:32.151Z,88.50
2018-01-04T15:19:00.390Z,89.00
2018-01-04T15:21:29.475Z,88.30
2018-01-04T15:23:57.861Z,88.30
2018-01-04T15:26:26.270Z,88.40
2018-01-04T15:28:54.638Z,88.40
2018-01-04T15:31:23.236Z,88.20
2018-01-04T15:33:51.627Z,88.80
2018-01-04T15:36:19.931Z,88.90
2018-01-04T15:38:48.286Z,89.20
2018-01-04T15:41:16.572Z,89.00
2018-01-04T15:43:44.803Z,88.90
2018-01-04T15:46:13.106Z,89.20
2018-01-04T15:48:41.406Z,89.70
2018-01-04T15:51:10.789Z,89.70
2018-01-04T15:53:39.074Z,89.70
2018-01-04T15:56:07.438Z,90.00
2018-01-04T15:58:35.700Z,90.10
2018-01-04T16:01:04.055Z,89.80
2018-01-04T16:03:33.087Z,89.20
2018-01-04T16:06:01.345Z,89.20
2018-01-04T16:08:29.828Z,88.30
2018-01-04T16:10:58.253Z,88.30
2018-01-04T16:13:26.638Z,88.70
2018-01-04T16:15:55.088Z,88.10
2018-01-04T16:18:23.287Z,88.40
2018-01-04T16:20:51.533Z,88.40
2018-01-04T16:23:19.806Z,88.80
2018-01-04T16:25:48.118Z,88.60
2018-01-04T16:28:16.483Z,88.50
2018-01-04T16:30:44.762Z,88.40
2018-01-04T16:33:13.046Z,88.60
2018-01-04T16:35:43.829Z,88.90
2018-01-04T16:38:13.066Z,88.70
2018-01-04T16:40:41.410Z,88.50
2018-01-04T16:43:09.758Z,89.40
2018-01-04T16:45:38.169Z,89.00
2018-01-04T16:48:06.488Z,89.10
2018-01-04T16:50:34.935Z,90.00
2018-01-04T16:53:03.322Z,89.80
2018-01-04T16:55:31.677Z,89.60
2018-01-04T16:57:59.990Z,89.80
2018-01-04T17:00:28.322Z,90.20
2018-01-04T17:02:57.445Z,90.50
2018-01-04T17:05:25.804Z,90.50
2018-01-04T17:07:54.206Z,90.60
2018-01-04T17:10:22.582Z,90.60
2018-01-04T17:12:50.857Z,90.50
2018-01-04T17:15:19.307Z,90.60
2018-01-04T17:17:48.346Z,90.60
2018-01-04T17:20:16.615Z,90.60
2018-01-04T17:22:44.892Z,90.80
2018-01-04T17:25:13.166Z,90.80
2018-01-04T17:27:41.575Z,90.80
2018-01-04T17:30:09.848Z,91.00
2018-01-04T17:32:38.074Z,91.10
2018-01-04T17:35:06.400Z,91.30
2018-01-04T17:37:35.896Z,91.20
2018-01-04T17:40:04.175Z,91.10
2018-01-04T17:42:33.529Z,91.20
2018-01-04T17:45:02.755Z,91.10
2018-01-04T17:47:31.210Z,91.10
2018-01-04T17:50:00.223Z,91.10
2018-01-04T17:52:28.638Z,91.00
2018-01-04T17:54:57.119Z,90.90
2018-01-04T17:57:25.429Z,91.10
2018-01-04T17:59:54.757Z,91.10
2018-01-04T18:02:23.234Z,91.00
2018-01-04T18:04:52.265Z,91.30
2018-01-04T18:07:20.593Z,91.30
2018-01-04T18:09:49.599Z,91.10
2018-01-04T18:12:17.890Z,91.10
2018-01-04T18:14:46.229Z,90.90
2018-01-04T18:17:15.230Z,91.00
2018-01-04T18:19:44.310Z,90.90
2018-01-04T18:22:13.426Z,90.80
2018-01-04T18:24:41.781Z,90.80
2018-01-04T18:27:10.090Z,91.00
2018-01-04T18:29:38.382Z,91.10
2018-01-04T18:32:06.654Z,91.10
2018-01-04T18:34:35.151Z,91.00
2018-01-04T18:37:03.418Z,91.20
2018-01-04T18:39:31.749Z,91.30
2018-01-04T18:42:00.778Z,91.50
2018-01-04T18:44:29.222Z,91.50
2018-01-04T18:46:57.611Z,91.60
2018-01-04T18:49:26.759Z,92.00
2018-01-04T18:51:55.218Z,91.90
2018-01-04T18:54:23.486Z,92.00
2018-01-04T18:56:51.710Z,92.00
2018-01-04T18:59:19.962Z,92.00
2018-01-04T19:01:48.210Z,92.00
2018-01-04T19:04:16.563Z,92.10
2018-01-04T19:06:44.970Z,92.10
2018-01-04T19:09:14.027Z,92.10
2018-01-04T19:11:42.284Z,92.10
2018-01-04T19:14:10.549Z,92.10
2018-01-04T19:16:38.784Z,92.00
2018-01-04T19:19:07.800Z,91.90
2018-01-04T19:21:36.162Z,92.00
2018-01-04T19:24:04.409Z,91.90
2018-01-04T19:26:32.722Z,91.80
2018-01-04T19:29:00.996Z,91.90
2018-01-04T19:31:29.557Z,91.90
2018-01-04T19:33:58.580Z,91.70
2018-01-04T19:36:26.883Z,91.80
2018-01-04T19:38:55.330Z,91.80
2018-01-04T19:41:23.811Z,91.80
2018-01-04T19:43:52.111Z,91.90
2018-01-04T19:46:20.502Z,91.80
2018-01-04T19:48:49.054Z,91.90
2018-01-04T19:51:17.329Z,91.90
2018-01-04T19:53:45.751Z,92.00
2018-01-04T19:56:14.723Z,92.10
2018-01-04T19:58:43.829Z,92.10
2018-01-04T20:01:12.959Z,92.20
2018-01-04T20:03:41.536Z,92.20
2018-01-04T20:06:09.877Z,92.40
2018-01-04T20:08:39.034Z,92.30
2018-01-04T20:11:08.282Z,92.30
2018-01-04T20:13:37.506Z,92.30
2018-01-04T20:16:05.968Z,92.40
2018-01-04T20:18:34.292Z,92.50
2018-01-04T20:21:02.578Z,92.60
2018-01-04T20:23:30.961Z,92.60
2018-01-04T20:25:59.255Z,92.40
2018-01-04T20:28:27.581Z,92.70
2018-01-04T20:30:55.816Z,92.60
2018-01-04T20:33:24.813Z,92.50
2018-01-04T20:35:53.878Z,92.50
2018-01-04T20:38:22.175Z,92.50
2018-01-04T20:40:51.220Z,92.50
2018-01-04T20:43:21.988Z,92.50
2018-01-04T20:45:50.238Z,92.50
2018-01-04T20:48:18.489Z,92.50
2018-01-04T20:50:47.078Z,92.60
2018-01-04T20:53:15.358Z,92.80
2018-01-04T20:55:43.654Z,92.90
2018-01-04T20:58:12.106Z,93.00
2018-01-04T21:00:40.421Z,93.00
2018-01-04T21:03:08.680Z,93.40
2018-01-04T21:05:37.247Z,93.50
2018-01-04T21:08:05.520Z,93.60
2018-01-04T21:10:34.609Z,93.50
2018-01-04T21:13:02.941Z,93.50
2018-01-04T21:15:31.341Z,93.60
2018-01-04T21:18:00.375Z,93.40
2018-01-04T21:20:28.717Z,93.40
2018-01-04T21:22:56.931Z,93.40
2018-01-04T21:25:25.322Z,93.40
2018-01-04T21:27:53.575Z,93.40
2018-01-04T21:30:22.416Z,93.50
2018-01-04T21:32:50.688Z,93.40
2018-01-04T21:35:18.987Z,93.50
2018-01-04T21:37:47.342Z,93.70
2018-01-04T21:40:15.636Z,93.80
2018-01-04T21:42:43.917Z,94.30
2018-01-04T21:45:12.247Z,94.30
2018-01-04T21:47:40.606Z,94.90
2018-01-04T21:50:08.875Z,94.90
2018-01-04T21:52:37.266Z,94.90
2018-01-04T21:55:05.558Z,94.90
2018-01-04T21:57:33.918Z,94.90
2018-01-04T22:00:02.200Z,94.90
2018-01-04T22:02:30.445Z,95.00
2018-01-04T22:04:59.584Z,96.30
2018-01-04T22:07:27.836Z,96.20
2018-01-04T22:09:56.066Z,96.60
2018-01-04T22:12:24.339Z,96.50
2018-01-04T22:14:52.577Z,95.60
2018-01-04T22:17:20.836Z,94.30
2018-01-04T22:19:49.931Z,92.90
2018-01-04T22:22:18.966Z,92.40
2018-01-04T22:24:47.262Z,92.30
2018-01-04T22:27:15.562Z,91.80
2018-01-04T22:32:07.626Z,91.70
2018-01-04T22:34:35.873Z,91.40
2018-01-04T22:37:04.269Z,90.90
2018-01-04T22:39:32.531Z,90.80
2018-01-04T22:42:00.782Z,90.80
2018-01-04T22:44:29.058Z,90.60
2018-01-04T22:46:58.878Z,90.50
2018-01-04T22:49:27.205Z,90.30
2018-01-04T22:51:55.447Z,90.40
2018-01-04T22:54:23.694Z,90.40
2018-01-04T22:56:52.070Z,90.10
2018-01-04T22:59:20.339Z,89.50
2018-01-04T23:01:49.331Z,89.50
2018-01-04T23:04:18.427Z,89.50
2018-01-04T23:06:47.592Z,89.50
2018-01-04T23:09:15.882Z,89.50
2018-01-04T23:11:44.230Z,89.10
2018-01-04T23:14:12.476Z,89.30
2018-01-04T23:16:40.764Z,89.50
2018-01-04T23:19:09.112Z,89.50
2018-01-04T23:21:38.122Z,90.00
2018-01-04T23:24:06.386Z,90.00
2018-01-04T23:26:35.499Z,89.90
2018-01-04T23:29:03.803Z,89.90
2018-01-04T23:31:32.092Z,89.70
2018-01-04T23:34:00.362Z,89.80
2018-01-04T23:36:28.590Z,90.00
2018-01-04T23:38:57.026Z,89.80
2018-01-04T23:41:25.332Z,89.80
2018-01-04T23:43:54.386Z,89.20
2018-01-04T23:46:22.639Z,89.20
2018-01-04T23:48:50.939Z,89.00
2018-01-04T23:51:19.291Z,88.10
2018-01-04T23:53:48.325Z,86.60
2018-01-04T23:56:17.371Z,86.60
2018-01-04T23:58:46.077Z,86.60
